• Join FlightAware (Why Join?)
  • Login
  • US Flag GB Flag 
04:11 EDT


 

Airport Tracker/Info


-or-


 

Live Flight TrackerFlight Track Log ✈ AWI3680 ✈ 13-Jul-2013 ✈ KPHL - KALB

Flight Track Log - Related Links

Times and Time Zones

All times are in EDT time to prevent confusion due to time zone crossing. See the AWI3680 flight status page for this flight to view local times or setup timezone preferences in your user account.

Time Position Orientation Groundspeed Altitude Reporting Facility
EDT Latitude Longitude Course Direction KTS MPH feet Rate Location/Type
20:23 39.8667 -75.2833 105° East 164 189 700  Level Philadelphia TRACON
20:24 39.8167 -75.3167 207° Southwest 205 236 2,700 1,800 Climbing Philadelphia TRACON
20:25 39.7667 -75.3333 194° South 228 262 4,600 1,980 Climbing Philadelphia TRACON
20:26 39.8167 -74.9112 90° East  Level FlightAware Approximate
20:27 39.8089 -74.8276 105° East  Level FlightAware Approximate
20:27 39.7736 -75.1006 88° East 285 328 9,200  Level New York Center
20:28 39.7925 -74.7455 105° East  Level FlightAware Approximate
20:28 39.7797 -74.9900 86° East 298 343 11,000  Level New York Center
20:29 39.7839 -74.8689 87° East 321 369 11,900 1,020 Climbing New York Center
20:30 39.7989 -74.7347 82° East 354 407 13,100 1,380 Climbing New York Center
20:31 39.8728 -74.6414 44° Northeast 344 396 14,700 1,380 Climbing New York Center
20:32 39.9569 -74.5567 38° Northeast 353 406 16,000 1,260 Climbing New York Center
20:33 40.0431 -74.4692 38° Northeast 381 438 17,300 1,020 Climbing New York Center
20:34 40.1311 -74.3869 36° Northeast 386 444 18,100 780 Climbing New York Center
20:35 40.2150 -74.3017 38° Northeast 386 444 19,000 780 Climbing New York Center
20:36 40.3050 -74.2192 35° Northeast 386 444 19,700 660 Climbing New York Center
20:38 40.4983 -74.0803 29° Northeast 394 453 21,000 420 Climbing Boston Center
20:39 40.5886 -74.0197 27° Northeast 394 453 21,000  Level Boston Center
20:40 40.6814 -73.9481 30° Northeast 389 448 21,000  Level Boston Center
20:41 40.7783 -73.8736 30° Northeast 389 448 21,000  Level Boston Center
20:42 40.8628 -73.7739 42° Northeast 395 455 21,000  Level Boston Center
20:43 40.9536 -73.6603 43° Northeast 400 460 21,000  Level Boston Center
20:44 41.0339 -73.5711 40° Northeast 408 470 21,000 -120 Level Boston Center
20:45 41.1367 -73.4928 30° Northeast 397 457 20,800 -540 Descending Boston Center
20:46 41.2614 -73.5197 351° North 397 457 20,000 -420 Descending Boston Center
20:47 41.3906 -73.5442 352° North 428 493 20,000  Level Boston Center
20:48 41.5133 -73.5656 353° North 438 504 20,000 -180 Level Boston Center
20:49 41.6275 -73.5900 351° North 438 504 19,700 -1,020 Descending Boston Center
20:50 41.7336 -73.6083 353° North 396 456 18,000 -2,040 Descending Boston Center
20:51 41.8336 -73.6269 352° North 368 423 15,700 -2,400 Descending Boston Center
20:52 41.9231 -73.6456 351° North 363 418 13,500 -2,100 Descending Boston Center
20:53 42.0019 -73.6581 353° North 359 413 12,100 -1,380 Descending Boston Center
20:54 42.1039 -73.6825 350° North 341 392 11,000 -960 Descending Boston Center
20:55 42.2017 -73.7097 348° North 344 396 10,000 -1,200 Descending Boston Center
20:56 42.2719 -73.7419 341° North 292 336 8,600 -1,860 Descending Boston Center
20:57 42.3467 -73.7772 341° North 284 327 6,800 -1,800 Descending Boston Center
20:58 42.4236 -73.7931 351° North 283 326 5,000 -1,380 Descending Boston Center
20:59 42.5008 -73.7947 359° North 282 325 4,000 -1,020 Descending Boston Center